Time;durP1;ratioP1;P1;durP2;ratioP2;P2;SDS_P1;SDS_P2;PMS_P1;PMS_P2;Temp;Humidity;BMP_temperature;BMP_pressure;BME280_temperature;BME280_humidity;BME280_pressure;Samples;Min_cycle;Max_cycle;Signal;HPM_P1;HPM_P2
2022/04/27 00:07:07;;;;;;;61.15;35.58;;;;;;;3.48;86.10;99267.03;4230006;82;21113;-87
2022/04/27 00:13:15;;;;;;;49.80;30.05;;;;;;;3.40;86.54;99265.14;4219144;82;21126;-87
2022/04/27 00:19:18;;;;;;;63.83;34.53;;;;;;;3.33;86.85;99261.56;4244846;82;21619;-89
2022/04/27 00:25:44;;;;;;;59.13;32.33;;;;;;;3.33;86.89;99271.03;4227584;82;21189;-91
2022/04/27 00:31:46;;;;;;;63.13;33.13;;;;;;;3.24;86.56;99277.02;4167718;84;21095;-88
2022/04/27 00:37:47;;;;;;;58.40;29.60;;;;;;;3.11;86.90;99277.42;4239265;82;21104;-89
2022/04/27 00:43:49;;;;;;;79.45;40.78;;;;;;;3.16;88.11;99285.93;4241632;82;21574;-87
2022/04/27 00:49:52;;;;;;;59.35;30.80;;;;;;;3.26;87.80;99282.11;4234719;82;21051;-89
2022/04/27 00:55:55;;;;;;;75.32;40.65;;;;;;;3.21;87.73;99280.36;4241595;82;21054;-89
2022/04/27 01:01:56;;;;;;;94.87;46.42;;;;;;;3.12;87.33;99278.20;4238101;82;21987;-88
2022/04/27 01:08:00;;;;;;;81.30;43.45;;;;;;;2.98;87.17;99284.33;4241062;82;21033;-87
2022/04/27 01:14:01;;;;;;;76.05;39.00;;;;;;;2.86;87.41;99286.88;4156096;84;21035;-90
2022/04/27 01:20:05;;;;;;;60.80;32.98;;;;;;;2.77;87.35;99286.08;4173050;84;21080;-88
2022/04/27 01:26:07;;;;;;;67.53;33.23;;;;;;;2.65;87.44;99293.44;4164249;84;21035;-88
2022/04/27 01:32:10;;;;;;;64.75;33.70;;;;;;;2.65;87.60;99297.50;4189697;84;21687;-87
2022/04/27 01:38:12;;;;;;;61.58;33.02;;;;;;;2.55;87.04;99295.66;4177320;83;21065;-88
2022/04/27 01:44:15;;;;;;;53.25;28.35;;;;;;;2.55;88.04;99293.73;4191926;84;21048;-87
2022/04/27 01:50:17;;;;;;;54.23;28.92;;;;;;;2.45;87.95;99298.09;4199546;83;21122;-90
2022/04/27 01:56:19;;;;;;;56.37;29.65;;;;;;;2.42;88.24;99297.38;4183605;83;21060;-87
2022/04/27 02:02:23;;;;;;;46.18;26.37;;;;;;;2.38;88.22;99291.57;4184641;83;21061;-89
2022/04/27 02:08:26;;;;;;;54.77;27.40;;;;;;;2.36;88.55;99295.94;4175751;83;22060;-88
2022/04/27 02:14:29;;;;;;;51.20;25.52;;;;;;;2.35;88.80;99295.67;4138972;84;21139;-88
2022/04/27 02:20:31;;;;;;;52.43;26.23;;;;;;;2.48;88.98;99304.22;4126074;84;21114;-89
2022/04/27 02:26:32;;;;;;;51.63;28.30;;;;;;;2.44;89.01;99304.62;4138994;84;21075;-89
2022/04/27 02:32:34;;;;;;;42.83;22.58;;;;;;;2.42;89.11;99296.57;4133624;83;21079;-88
2022/04/27 02:38:35;;;;;;;54.48;26.93;;;;;;;2.41;89.63;99300.39;4186556;83;21078;-89
2022/04/27 02:44:39;;;;;;;49.40;26.35;;;;;;;2.40;89.34;99304.19;4186798;83;21045;-90
2022/04/27 02:56:57;;;;;;;39.33;20.60;;;;;;;2.42;89.91;99308.19;4157308;84;21067;-90
2022/04/27 03:02:58;;;;;;;46.58;24.52;;;;;;;2.43;90.14;99308.96;4172596;84;21962;-88
2022/04/27 03:08:59;;;;;;;55.80;27.45;;;;;;;2.48;90.42;99308.82;4184716;84;22095;-92
2022/04/27 03:15:05;;;;;;;45.98;26.55;;;;;;;2.47;90.20;99309.94;4178774;84;21113;-91
2022/04/27 03:21:06;;;;;;;53.08;27.50;;;;;;;2.53;90.50;99313.54;4157677;83;21712;-88
2022/04/27 03:27:08;;;;;;;47.17;24.72;;;;;;;2.60;90.92;99320.62;4168818;84;21985;-88
2022/04/27 03:33:11;;;;;;;47.70;24.27;;;;;;;2.73;91.37;99322.41;4168180;84;21047;-89
2022/04/27 03:39:13;;;;;;;47.62;25.77;;;;;;;2.95;91.75;99326.88;4158677;84;21059;-88
2022/04/27 03:45:15;;;;;;;49.73;27.75;;;;;;;3.04;90.08;99329.83;4171050;84;21045;-88
2022/04/27 03:51:17;;;;;;;50.38;28.50;;;;;;;3.13;91.71;99333.91;4160813;83;21110;-88
2022/04/27 03:57:20;;;;;;;57.05;30.45;;;;;;;3.31;91.50;99337.39;4179988;83;21442;-89
2022/04/27 04:03:22;;;;;;;55.75;30.88;;;;;;;3.37;91.93;99343.67;4186445;83;22292;-87
2022/04/27 04:09:23;;;;;;;69.12;34.78;;;;;;;3.47;91.92;99351.48;4203014;82;21066;-91
2022/04/27 04:15:26;;;;;;;67.15;33.38;;;;;;;3.53;91.87;99361.03;4226388;82;21077;-88
2022/04/27 04:21:29;;;;;;;69.55;34.73;;;;;;;3.68;92.75;99370.58;4227593;82;21077;-88
2022/04/27 04:33:52;;;;;;;67.08;36.70;;;;;;;3.99;93.01;99377.93;4154388;84;21436;-90
2022/04/27 04:39:54;;;;;;;69.22;35.88;;;;;;;4.11;92.60;99380.21;4210685;82;21048;-88
2022/04/27 04:45:57;;;;;;;65.42;34.73;;;;;;;4.21;92.92;99379.84;4225411;82;21091;-87
2022/04/27 04:52:16;;;;;;;65.17;34.60;;;;;;;4.35;93.32;99393.20;4090357;82;21070;-89
2022/04/27 04:58:36;;;;;;;67.82;36.63;;;;;;;4.44;93.46;99395.32;4207118;83;21571;-89
2022/04/27 05:04:39;;;;;;;78.52;38.92;;;;;;;4.54;93.68;99407.17;4228431;82;21060;-88
2022/04/27 05:10:55;;;;;;;74.17;37.95;;;;;;;4.69;93.69;99408.78;4225167;82;21068;-87
2022/04/27 05:17:04;;;;;;;67.03;38.58;;;;;;;4.83;94.04;99415.33;4221113;83;22337;-87
2022/04/27 05:23:14;;;;;;;78.28;39.55;;;;;;;5.01;94.28;99405.19;4225785;83;21117;-87
2022/04/27 05:35:43;;;;;;;72.08;36.80;;;;;;;5.31;94.15;99414.89;4222482;82;21105;-89
2022/04/27 05:41:53;;;;;;;74.07;36.63;;;;;;;5.46;94.45;99424.61;4151695;84;22456;-89
2022/04/27 05:48:00;;;;;;;66.67;34.73;;;;;;;5.62;94.47;99437.02;4178162;84;21033;-89
2022/04/27 05:54:16;;;;;;;66.95;34.63;;;;;;;5.81;94.76;99437.35;4224436;83;21077;-88
2022/04/27 06:00:36;;;;;;;62.60;32.70;;;;;;;6.04;94.94;99434.53;4225344;83;21093;-88
2022/04/27 06:06:39;;;;;;;72.10;35.05;;;;;;;6.27;94.84;99441.97;4216319;83;21042;-88
2022/04/27 06:12:47;;;;;;;61.42;32.67;;;;;;;6.49;94.86;99450.30;4227284;82;21630;-88
2022/04/27 06:19:07;;;;;;;64.00;33.00;;;;;;;6.75;94.52;99445.34;4214261;82;21095;-89
2022/04/27 06:32:50;;;;;;;62.45;32.05;;;;;;;7.13;94.51;99453.18;4238485;82;21047;-89
2022/04/27 06:38:51;;;;;;;63.65;34.27;;;;;;;7.37;94.13;99460.78;4229435;82;21068;-89
2022/04/27 06:44:55;;;;;;;62.55;34.55;;;;;;;7.56;94.29;99460.18;4203523;83;21052;-87
2022/04/27 06:51:18;;;;;;;59.38;34.43;;;;;;;7.78;93.98;99462.41;4227161;82;22052;-87
2022/04/27 06:57:38;;;;;;;58.55;32.65;;;;;;;8.00;93.73;99472.20;4210185;83;21072;-88
2022/04/27 07:03:42;;;;;;;60.65;33.00;;;;;;;8.24;93.44;99474.66;4238951;82;21102;-87
2022/04/27 07:09:44;;;;;;;53.80;30.08;;;;;;;8.42;93.12;99482.75;4233289;82;21066;-87
2022/04/27 07:15:45;;;;;;;56.20;31.23;;;;;;;8.61;92.99;99484.23;4232370;82;21060;-87
2022/04/27 07:21:47;;;;;;;55.67;29.75;;;;;;;8.79;92.99;99490.37;4236381;82;21150;-91
2022/04/27 07:27:48;;;;;;;40.03;23.77;;;;;;;8.95;92.74;99493.11;4226305;81;21095;-87
2022/04/27 07:33:49;;;;;;;40.80;23.62;;;;;;;9.07;92.57;99502.02;4225372;82;21026;-90
2022/04/27 07:39:51;;;;;;;43.25;23.42;;;;;;;9.15;92.25;99501.61;4231787;82;21113;-89
2022/04/27 07:45:53;;;;;;;38.08;22.25;;;;;;;9.24;91.58;99507.68;4191940;83;21017;-91
2022/04/27 07:51:59;;;;;;;40.48;23.00;;;;;;;9.34;91.57;99512.06;4227936;82;21019;-90
2022/04/27 07:58:02;;;;;;;35.23;20.48;;;;;;;9.53;91.27;99523.63;4203553;82;21078;-89
2022/04/27 08:04:05;;;;;;;31.85;20.12;;;;;;;9.65;90.97;99528.20;4187138;83;21465;-89
2022/04/27 08:10:22;;;;;;;30.85;19.87;;;;;;;9.87;91.16;99532.98;4217138;82;21136;-90
2022/04/27 08:16:31;;;;;;;31.40;18.67;;;;;;;10.07;90.76;99535.98;4211256;82;21169;-90
2022/04/27 08:22:33;;;;;;;30.77;18.98;;;;;;;10.14;90.01;99536.15;4230154;82;21034;-90
2022/04/27 08:28:37;;;;;;;28.83;17.87;;;;;;;10.28;89.54;99542.72;4228181;82;21074;-88
2022/04/27 08:34:38;;;;;;;28.05;18.90;;;;;;;10.28;88.79;99541.35;4223790;82;21017;-88
2022/04/27 08:40:47;;;;;;;31.55;19.23;;;;;;;10.42;89.07;99546.31;4227178;82;21077;-89
2022/04/27 08:46:54;;;;;;;28.85;17.45;;;;;;;10.53;88.90;99545.38;4232338;82;21623;-90
2022/04/27 08:52:57;;;;;;;28.25;17.57;;;;;;;10.68;88.52;99553.30;4231558;82;21167;-90
2022/04/27 08:59:01;;;;;;;24.20;16.05;;;;;;;10.78;87.68;99545.86;4227803;82;20991;-90
2022/04/27 09:05:17;;;;;;;17.98;13.35;;;;;;;10.94;86.81;99537.77;4230819;82;21038;-89
2022/04/27 09:11:28;;;;;;;27.63;15.63;;;;;;;10.86;85.83;99543.47;4204511;82;21050;-90
2022/04/27 09:23:55;;;;;;;21.27;15.40;;;;;;;11.13;85.16;99544.55;4230678;82;21098;-96
2022/04/27 09:30:11;;;;;;;27.13;15.30;;;;;;;11.26;83.90;99545.16;4209660;82;21045;-93
2022/04/27 09:36:25;;;;;;;18.37;12.20;;;;;;;11.27;83.68;99539.91;4227416;82;21388;-89
2022/04/27 09:42:33;;;;;;;18.57;12.15;;;;;;;11.51;82.72;99542.23;4228331;82;21039;-93
2022/04/27 09:48:39;;;;;;;17.90;12.33;;;;;;;11.43;81.26;99540.57;4219247;82;21098;-89
2022/04/27 09:54:48;;;;;;;19.55;12.47;;;;;;;11.53;77.98;99540.50;4228993;82;21012;-91
2022/04/27 10:00:49;;;;;;;15.03;10.85;;;;;;;11.43;78.36;99536.45;4234264;82;21673;-90
2022/04/27 10:07:04;;;;;;;21.35;12.95;;;;;;;11.49;79.13;99536.36;4229516;82;21561;-90
2022/04/27 10:13:11;;;;;;;15.93;11.73;;;;;;;11.52;78.52;99534.25;4206148;82;21049;-91
2022/04/27 10:19:17;;;;;;;24.45;13.53;;;;;;;11.46;76.01;99522.58;4225766;82;21145;-85
2022/04/27 10:25:29;;;;;;;19.90;12.93;;;;;;;11.46;75.59;99532.98;4227646;82;22158;-90
2022/04/27 10:31:47;;;;;;;20.27;12.63;;;;;;;11.59;75.28;99530.83;4223542;82;21074;-89
2022/04/27 10:37:58;;;;;;;19.25;13.32;;;;;;;11.82;73.19;99535.70;4229981;82;21158;-89
2022/04/27 10:44:02;;;;;;;20.75;12.30;;;;;;;12.06;73.96;99536.62;4178020;83;21123;-91
2022/04/27 10:50:25;;;;;;;20.23;13.40;;;;;;;12.06;69.15;99533.88;4231496;82;21054;-89
2022/04/27 10:56:29;;;;;;;20.02;12.85;;;;;;;12.06;70.05;99531.93;4197711;83;22192;-91
2022/04/27 11:02:39;;;;;;;19.70;13.28;;;;;;;12.46;69.60;99538.94;4199963;83;21088;-90
2022/04/27 11:09:12;;;;;;;18.37;12.82;;;;;;;12.56;68.19;99531.97;4185940;83;21122;-88
2022/04/27 11:15:37;;;;;;;19.12;13.20;;;;;;;12.32;67.00;99537.36;4170305;83;21116;-89
2022/04/27 11:21:51;;;;;;;22.42;13.80;;;;;;;12.07;67.30;99535.48;4217911;82;21564;-89
2022/04/27 11:34:29;;;;;;;18.98;12.82;;;;;;;11.80;68.56;99542.13;4233890;82;21059;-90
2022/04/27 11:40:44;;;;;;;19.00;13.22;;;;;;;11.71;69.31;99541.61;4208033;82;21109;-88
2022/04/27 11:46:45;;;;;;;18.98;13.22;;;;;;;11.61;68.63;99540.26;4259154;82;21045;-91
2022/04/27 11:53:07;;;;;;;24.63;12.45;;;;;;;11.53;69.26;99544.61;4150443;84;21095;-92
2022/04/27 11:59:08;;;;;;;19.77;13.75;;;;;;;11.60;69.35;99548.28;4136966;84;21089;-91
2022/04/27 12:05:10;;;;;;;21.62;14.50;;;;;;;11.63;68.44;99540.72;4159520;84;21080;-90
2022/04/27 12:11:23;;;;;;;19.85;13.55;;;;;;;11.64;69.12;99542.86;4235025;82;21090;-90
2022/04/27 12:17:55;;;;;;;18.35;12.88;;;;;;;11.73;69.44;99535.95;4250721;82;21134;-89
2022/04/27 12:24:00;;;;;;;23.32;15.20;;;;;;;11.82;69.50;99530.22;4254322;82;21107;-90
2022/04/27 12:30:10;;;;;;;28.73;17.10;;;;;;;11.74;69.51;99530.70;4253243;82;21089;-91
2022/04/27 12:42:37;;;;;;;22.07;12.78;;;;;;;11.81;69.75;99531.36;4252071;82;21062;-89
2022/04/27 12:48:38;;;;;;;18.20;12.88;;;;;;;11.84;69.65;99530.05;4260206;82;21519;-90
2022/04/27 12:54:41;;;;;;;23.47;13.68;;;;;;;11.83;69.69;99530.42;4251353;82;21119;-88
2022/04/27 13:00:48;;;;;;;16.82;11.70;;;;;;;11.87;69.77;99533.42;4253276;82;21095;-94
2022/04/27 13:06:54;;;;;;;22.95;13.75;;;;;;;11.82;69.77;99526.91;4250104;82;21068;-90
2022/04/27 13:12:56;;;;;;;22.40;12.93;;;;;;;11.88;69.87;99522.67;4238900;82;21062;-89
2022/04/27 13:18:58;;;;;;;25.82;14.93;;;;;;;11.93;69.88;99518.81;4233739;82;21015;-92
2022/04/27 13:25:00;;;;;;;20.60;13.20;;;;;;;11.99;70.23;99519.50;4230596;82;20989;-91
2022/04/27 13:31:02;;;;;;;19.85;13.80;;;;;;;12.05;70.36;99519.38;4225309;82;21052;-89
2022/04/27 13:37:04;;;;;;;20.80;14.03;;;;;;;12.16;70.34;99516.77;4226789;82;21125;-87
2022/04/27 13:43:06;;;;;;;19.05;14.15;;;;;;;12.14;68.87;99516.34;4225588;82;21078;-88
2022/04/27 13:49:07;;;;;;;23.32;13.62;;;;;;;12.10;69.01;99513.58;4212034;82;21074;-91
2022/04/27 13:55:09;;;;;;;19.67;12.93;;;;;;;12.12;69.11;99519.46;4228365;82;21104;-92
2022/04/27 14:01:10;;;;;;;18.85;12.93;;;;;;;12.20;69.01;99517.62;4130647;84;21045;-90
2022/04/27 14:07:12;;;;;;;20.72;13.60;;;;;;;12.31;69.74;99519.89;4066716;85;21042;-92
2022/04/27 14:13:17;;;;;;;19.55;14.63;;;;;;;12.46;68.89;99512.05;4226950;82;22312;-90
2022/04/27 14:19:19;;;;;;;21.15;13.98;;;;;;;12.64;67.41;99502.04;4205103;83;21035;-91
2022/04/27 14:25:20;;;;;;;20.20;13.30;;;;;;;12.58;68.28;99509.05;4163129;83;22440;-90
2022/04/27 14:31:22;;;;;;;19.85;13.38;;;;;;;12.33;68.11;99512.88;4234858;82;21538;-90
2022/04/27 14:37:24;;;;;;;23.62;14.50;;;;;;;12.21;68.09;99517.25;4235274;82;21034;-88
2022/04/27 14:43:25;;;;;;;20.32;13.20;;;;;;;12.16;68.19;99509.91;4216695;82;21049;-91
2022/04/27 14:49:27;;;;;;;17.90;12.55;;;;;;;12.11;68.61;99514.34;4236308;82;21721;-89
2022/04/27 14:55:28;;;;;;;14.80;11.28;;;;;;;12.17;69.46;99508.73;4156678;84;21084;-89
2022/04/27 15:01:30;;;;;;;17.50;12.58;;;;;;;12.30;69.47;99505.97;4234646;82;21124;-94
2022/04/27 15:07:33;;;;;;;17.48;12.33;;;;;;;12.35;69.32;99506.44;4239627;82;21076;-92
2022/04/27 15:13:37;;;;;;;19.90;14.00;;;;;;;12.33;69.35;99506.02;4246756;82;21601;-90
2022/04/27 15:19:38;;;;;;;18.17;13.32;;;;;;;12.44;69.71;99511.63;4191246;83;21069;-90
2022/04/27 15:25:40;;;;;;;18.30;12.98;;;;;;;12.43;69.92;99510.83;4193214;83;21055;-90
2022/04/27 15:31:41;;;;;;;20.68;13.28;;;;;;;12.40;70.54;99511.58;4200148;83;21045;-89
2022/04/27 15:37:43;;;;;;;25.48;13.93;;;;;;;12.31;69.58;99516.58;4205544;83;21560;-88
2022/04/27 15:43:44;;;;;;;17.75;12.85;;;;;;;12.24;69.80;99517.88;4191226;83;21108;-88
2022/04/27 15:49:46;;;;;;;21.77;14.30;;;;;;;12.38;70.81;99516.67;4196889;83;21607;-91
2022/04/27 15:55:49;;;;;;;19.95;13.10;;;;;;;12.49;70.45;99525.03;4200482;83;21076;-90
2022/04/27 16:01:51;;;;;;;18.30;13.32;;;;;;;12.55;70.73;99520.78;4196865;83;21068;-90
2022/04/27 16:07:54;;;;;;;19.85;12.47;;;;;;;12.61;70.79;99521.45;4209286;83;21091;-88
2022/04/27 16:13:56;;;;;;;18.42;13.05;;;;;;;12.72;70.57;99533.92;4207423;83;21825;-91
2022/04/27 16:19:59;;;;;;;20.20;14.10;;;;;;;12.64;71.02;99529.51;4235036;82;21055;-89
2022/04/27 16:26:02;;;;;;;18.12;13.03;;;;;;;12.61;70.97;99533.01;4213165;83;21033;-90
2022/04/27 16:32:05;;;;;;;19.98;13.28;;;;;;;12.55;71.42;99527.08;4122604;82;10000009;-89
2022/04/27 16:38:09;;;;;;;20.15;12.98;;;;;;;12.57;71.58;99532.95;4236746;82;21174;-91
2022/04/27 16:44:11;;;;;;;19.42;14.25;;;;;;;12.52;71.63;99539.38;4230669;82;21016;-90
2022/04/27 16:50:13;;;;;;;18.23;12.53;;;;;;;12.28;71.96;99537.11;4239048;82;21082;-91
2022/04/27 16:56:14;;;;;;;20.48;14.15;;;;;;;12.11;72.36;99549.45;4228737;82;21121;-89
2022/04/27 17:02:16;;;;;;;21.20;14.10;;;;;;;11.79;72.26;99544.08;4247565;82;21023;-92
2022/04/27 17:08:17;;;;;;;24.67;15.53;;;;;;;11.63;72.54;99552.26;4236466;82;21068;-89
2022/04/27 17:14:21;;;;;;;21.65;15.43;;;;;;;11.55;72.62;99562.86;4176255;82;21096;-90
2022/04/27 17:20:22;;;;;;;25.37;15.93;;;;;;;11.39;72.89;99569.05;4043622;86;21142;-90
2022/04/27 17:32:45;;;;;;;30.50;18.10;;;;;;;10.94;73.57;99583.53;4117348;85;21072;-88
2022/04/27 17:38:46;;;;;;;24.27;16.23;;;;;;;10.70;73.96;99596.96;4044735;86;22236;-90
2022/04/27 17:44:48;;;;;;;27.20;17.02;;;;;;;10.56;74.41;99602.72;4059635;86;22216;-92
2022/04/27 17:50:50;;;;;;;30.35;18.95;;;;;;;10.40;74.63;99607.45;4089331;85;21544;-90
2022/04/27 17:56:51;;;;;;;33.18;17.27;;;;;;;10.29;74.94;99614.07;4086323;85;21071;-91
2022/04/27 18:02:53;;;;;;;34.50;21.25;;;;;;;10.22;75.16;99615.86;4087034;85;21035;-91
2022/04/27 18:09:06;;;;;;;34.38;21.07;;;;;;;10.17;75.78;99623.78;4107139;85;21109;-90
2022/04/27 18:15:09;;;;;;;27.32;17.92;;;;;;;10.12;75.92;99625.98;4114373;84;21086;-91
2022/04/27 18:21:11;;;;;;;31.77;19.30;;;;;;;10.02;76.50;99629.25;4142443;84;21031;-91
2022/04/27 18:27:13;;;;;;;31.30;19.77;;;;;;;9.88;76.54;99643.97;4141371;84;21018;-90
2022/04/27 18:33:15;;;;;;;32.00;19.85;;;;;;;9.80;77.01;99642.20;4146472;84;21003;-88
2022/04/27 18:39:19;;;;;;;32.42;19.70;;;;;;;9.78;77.44;99645.29;4137897;84;21530;-89
2022/04/27 18:51:41;;;;;;;36.73;22.35;;;;;;;9.72;77.59;99654.11;4142307;84;21491;-89
2022/04/27 18:57:44;;;;;;;29.95;19.20;;;;;;;9.67;77.59;99666.66;4073476;85;21058;-89
2022/04/27 19:03:46;;;;;;;37.42;22.37;;;;;;;9.63;78.31;99675.37;4104983;84;21062;-89
2022/04/27 19:09:51;;;;;;;36.75;22.07;;;;;;;9.60;78.57;99677.44;4098115;85;21115;-89
2022/04/27 19:15:53;;;;;;;36.65;21.48;;;;;;;9.51;78.09;99676.23;4161062;83;21104;-90
2022/04/27 19:21:54;;;;;;;34.33;21.23;;;;;;;9.51;78.65;99675.66;4199686;83;21064;-90
2022/04/27 19:27:57;;;;;;;33.98;21.33;;;;;;;9.44;78.56;99675.46;4185088;83;21122;-89
2022/04/27 19:34:02;;;;;;;36.60;22.20;;;;;;;9.41;78.90;99681.63;4202434;83;21064;-91
2022/04/27 19:40:05;;;;;;;31.07;18.73;;;;;;;9.38;78.90;99680.20;4204063;83;21066;-91
2022/04/27 19:46:28;;;;;;;33.53;21.65;;;;;;;9.28;79.25;99677.40;4244457;82;21083;-88
2022/04/27 19:52:52;;;;;;;40.70;23.73;;;;;;;9.22;79.22;99684.23;4237248;82;21728;-89
2022/04/27 19:58:25;;;;;;;39.33;22.42;;;;;;;9.14;79.61;99678.38;4235713;82;21073;-90
2022/04/27 20:04:29;;;;;;;37.17;21.90;;;;;;;9.11;79.75;99681.78;4242183;82;21123;-87
2022/04/27 20:10:31;;;;;;;37.15;21.35;;;;;;;9.05;80.15;99682.41;4238755;82;21122;-90
2022/04/27 20:16:34;;;;;;;35.60;22.40;;;;;;;9.00;80.17;99686.19;4180734;82;21554;-89
2022/04/27 20:22:37;;;;;;;33.02;20.55;;;;;;;8.91;80.36;99686.10;4121240;85;21127;-90
2022/04/27 20:28:40;;;;;;;36.20;22.40;;;;;;;8.87;80.88;99679.73;4142638;84;22083;-90
2022/04/27 20:34:43;;;;;;;35.48;21.60;;;;;;;8.86;81.05;99686.34;4140309;84;21050;-88
2022/04/27 20:40:44;;;;;;;47.55;27.93;;;;;;;8.83;81.16;99697.95;4106392;85;21098;-88
2022/04/27 20:46:46;;;;;;;42.30;25.60;;;;;;;8.79;81.46;99701.14;4143267;84;21069;-90
2022/04/27 20:52:48;;;;;;;61.63;32.48;;;;;;;8.71;81.79;99704.23;4110274;85;22417;-88
2022/04/27 20:58:50;;;;;;;51.45;31.12;;;;;;;8.59;82.33;99707.56;4107723;85;21059;-90
2022/04/27 21:04:52;;;;;;;59.25;32.30;;;;;;;8.46;81.85;99716.34;4095686;85;21050;-88
2022/04/27 21:10:55;;;;;;;54.25;31.50;;;;;;;8.45;81.97;99712.59;4093867;85;21462;-90
2022/04/27 21:16:56;;;;;;;54.35;32.60;;;;;;;8.45;82.61;99712.03;4167051;83;21686;-88
2022/04/27 21:23:00;;;;;;;52.53;32.05;;;;;;;8.49;82.50;99705.33;4189627;83;21083;-90
2022/04/27 21:29:03;;;;;;;49.77;29.80;;;;;;;8.45;82.70;99718.05;4196528;83;21829;-89
2022/04/27 21:35:05;;;;;;;53.42;32.42;;;;;;;8.35;82.57;99718.53;4249779;82;21054;-90
2022/04/27 21:41:10;;;;;;;52.27;30.80;;;;;;;8.31;83.40;99721.70;4251371;82;21748;-91
2022/04/27 21:47:11;;;;;;;54.98;31.57;;;;;;;8.30;83.76;99721.48;4259892;82;22009;-91
2022/04/27 21:53:13;;;;;;;49.05;30.35;;;;;;;8.27;83.69;99721.58;4244562;82;21079;-90
2022/04/27 21:59:14;;;;;;;46.83;29.52;;;;;;;8.21;83.75;99722.92;4243493;82;21111;-90
2022/04/27 22:05:16;;;;;;;45.48;27.07;;;;;;;8.09;84.00;99724.30;4186699;83;21065;-93
2022/04/27 22:11:17;;;;;;;48.65;28.85;;;;;;;8.07;84.12;99724.39;4254209;82;21026;-89
2022/04/27 22:17:19;;;;;;;44.48;27.70;;;;;;;7.99;84.57;99730.19;4168174;82;21590;-89
2022/04/27 22:23:21;;;;;;;45.80;26.60;;;;;;;7.92;84.88;99730.74;4154287;84;21159;-90
2022/04/27 22:29:22;;;;;;;47.43;27.95;;;;;;;7.93;85.27;99725.54;4146941;84;21080;-90
2022/04/27 22:35:24;;;;;;;49.88;30.23;;;;;;;7.89;84.58;99731.42;4156453;84;21093;-89
2022/04/27 22:41:26;;;;;;;52.35;29.05;;;;;;;7.75;85.03;99729.59;4146579;84;22444;-92
2022/04/27 22:47:27;;;;;;;48.75;29.40;;;;;;;7.69;85.61;99735.03;4136557;85;21087;-89
2022/04/27 22:53:29;;;;;;;52.33;30.45;;;;;;;7.61;85.52;99731.06;4131606;85;21073;-89
2022/04/27 22:59:32;;;;;;;44.55;27.32;;;;;;;7.55;85.47;99728.30;4134958;85;21047;-89
2022/04/27 23:05:33;;;;;;;53.92;31.80;;;;;;;7.47;85.92;99733.30;4145113;85;22071;-89
2022/04/27 23:11:35;;;;;;;51.60;31.15;;;;;;;7.40;86.00;99738.48;4148276;84;21107;-89
2022/04/27 23:17:37;;;;;;;59.20;31.50;;;;;;;7.31;86.17;99735.05;4199797;83;21099;-91
2022/04/27 23:23:42;;;;;;;67.58;38.35;;;;;;;7.34;86.96;99733.02;4212698;83;21030;-88
2022/04/27 23:29:44;;;;;;;64.07;34.70;;;;;;;7.33;86.98;99725.99;4226896;83;21148;-88
2022/04/27 23:35:45;;;;;;;73.30;40.43;;;;;;;7.39;87.36;99728.73;4210624;83;21098;-88
2022/04/27 23:41:46;;;;;;;56.35;31.23;;;;;;;7.37;87.33;99729.63;4213323;83;21134;-89
2022/04/27 23:47:48;;;;;;;63.13;35.40;;;;;;;7.29;87.44;99726.41;4211191;83;21026;-88
2022/04/27 23:53:50;;;;;;;53.33;32.65;;;;;;;7.19;87.26;99732.27;4235306;82;21033;-89
2022/04/27 23:59:52;;;;;;;64.62;36.93;;;;;;;7.05;87.22;99724.95;4238469;82;21383;-90
